createdAt,value
2019-03-18T00:00:06.542Z,87.61
2019-03-18T00:01:06.559Z,86.78
2019-03-18T00:02:06.517Z,86.78
2019-03-18T00:03:06.507Z,87.51
2019-03-18T00:04:06.518Z,87.51
2019-03-18T00:05:06.490Z,88.02
2019-03-18T00:06:06.484Z,87.40
2019-03-18T00:07:06.471Z,87.71
2019-03-18T00:08:06.467Z,87.16
2019-03-18T00:09:06.479Z,87.68
2019-03-18T00:10:06.439Z,87.71
2019-03-18T00:11:06.441Z,87.37
2019-03-18T00:12:06.423Z,87.57
2019-03-18T00:13:06.413Z,87.37
2019-03-18T00:14:06.426Z,87.05
2019-03-18T00:15:06.395Z,87.51
2019-03-18T00:16:06.396Z,87.61
2019-03-18T00:17:06.366Z,87.71
2019-03-18T00:18:06.356Z,88.02
2019-03-18T00:19:06.357Z,87.37
2019-03-18T00:20:06.341Z,87.47
2019-03-18T00:21:06.316Z,87.37
2019-03-18T00:22:06.334Z,87.40
2019-03-18T00:23:06.319Z,87.30
2019-03-18T00:24:06.306Z,87.47
2019-03-18T00:25:06.273Z,87.47
2019-03-18T00:26:06.263Z,87.16
2019-03-18T00:27:06.265Z,86.43
2019-03-18T00:28:06.252Z,86.64
2019-03-18T00:29:06.256Z,86.74
2019-03-18T00:30:06.244Z,86.74
2019-03-18T00:31:06.218Z,87.40
2019-03-18T00:32:06.211Z,87.51
2019-03-18T00:33:06.196Z,87.19
2019-03-18T00:34:06.193Z,87.82
2019-03-18T00:35:06.208Z,88.02
2019-03-18T00:36:06.160Z,88.02
2019-03-18T00:37:06.155Z,88.02
2019-03-18T00:38:06.150Z,88.02
2019-03-18T00:39:06.143Z,88.02
2019-03-18T00:40:06.135Z,87.82
2019-03-18T00:41:06.107Z,87.71
2019-03-18T00:42:06.096Z,87.92
2019-03-18T00:43:06.095Z,87.92
2019-03-18T00:44:06.105Z,87.61
2019-03-18T00:45:14.861Z,88.34
2019-03-18T00:46:06.062Z,88.34
2019-03-18T00:47:06.054Z,88.02
2019-03-18T00:48:06.036Z,88.34
2019-03-18T00:49:06.047Z,87.51
2019-03-18T00:50:06.023Z,87.30
2019-03-18T00:51:06.007Z,87.40
2019-03-18T00:52:06.003Z,87.51
2019-03-18T00:53:05.975Z,87.61
2019-03-18T00:54:05.977Z,87.61
2019-03-18T00:55:05.971Z,87.57
2019-03-18T00:56:05.944Z,87.71
2019-03-18T00:57:05.931Z,87.71
2019-03-18T00:58:05.924Z,87.82
2019-03-18T00:59:05.939Z,87.82
2019-03-18T01:00:05.898Z,87.61
2019-03-18T01:01:05.887Z,87.57
2019-03-18T01:02:05.878Z,87.61
2019-03-18T01:03:05.873Z,87.61
2019-03-18T01:04:05.884Z,87.61
2019-03-18T01:05:05.858Z,87.19
2019-03-18T01:06:05.849Z,87.51
2019-03-18T01:07:05.841Z,87.51
2019-03-18T01:08:05.828Z,87.61
2019-03-18T01:09:05.820Z,88.02
2019-03-18T01:11:15.011Z,88.34
2019-03-18T01:12:15.985Z,88.28
2019-03-18T01:13:15.977Z,88.02
2019-03-18T01:14:16.037Z,87.61
2019-03-18T01:15:27.452Z,88.34
2019-03-18T01:16:15.970Z,87.92
2019-03-18T01:17:15.954Z,88.13
2019-03-18T01:18:15.940Z,87.71
2019-03-18T01:19:15.937Z,88.13
2019-03-18T01:20:15.935Z,87.61
2019-03-18T01:21:15.898Z,87.82
2019-03-18T01:22:15.881Z,88.23
2019-03-18T01:23:15.873Z,88.23
2019-03-18T01:24:15.878Z,87.99
2019-03-18T01:25:15.861Z,87.78
2019-03-18T01:26:15.850Z,87.88
2019-03-18T01:27:15.827Z,87.99
2019-03-18T01:28:15.825Z,87.99
2019-03-18T01:29:15.845Z,88.02
2019-03-18T01:30:15.793Z,87.61
2019-03-18T01:31:15.783Z,88.02
2019-03-18T01:32:15.767Z,88.13
2019-03-18T01:33:15.761Z,87.99
2019-03-18T01:34:15.779Z,87.78
2019-03-18T01:35:15.749Z,87.47
2019-03-18T01:36:15.747Z,87.16
2019-03-18T01:37:15.717Z,87.68
2019-03-18T01:38:15.716Z,87.57
2019-03-18T01:39:15.715Z,87.57
2019-03-18T01:40:15.689Z,87.99
2019-03-18T01:41:15.693Z,87.68
2019-03-18T01:42:16.955Z,87.82
2019-03-18T01:43:15.661Z,87.61
2019-03-18T01:44:15.666Z,87.26
2019-03-18T01:45:15.636Z,87.37
2019-03-18T01:46:15.626Z,87.37
2019-03-18T01:47:15.609Z,87.47
2019-03-18T01:48:15.619Z,87.47
2019-03-18T01:49:15.635Z,87.78
2019-03-18T01:50:15.606Z,86.64
2019-03-18T01:51:15.573Z,86.85
2019-03-18T01:52:15.567Z,87.05
2019-03-18T01:53:15.556Z,86.64
2019-03-18T01:54:15.550Z,86.74
2019-03-18T01:55:15.559Z,86.74
2019-03-18T01:56:15.516Z,86.74
2019-03-18T01:57:15.512Z,86.85
2019-03-18T01:58:15.493Z,86.64
2019-03-18T01:59:15.487Z,86.64
2019-03-18T02:00:15.480Z,86.64
2019-03-18T02:01:15.464Z,86.85
2019-03-18T02:02:15.448Z,86.43
2019-03-18T02:03:15.442Z,86.60
2019-03-18T02:04:15.427Z,86.54
2019-03-18T02:05:15.445Z,86.64
2019-03-18T02:06:15.407Z,86.18
2019-03-18T02:07:15.400Z,87.01
2019-03-18T02:08:15.383Z,86.91
2019-03-18T02:09:15.375Z,86.49
2019-03-18T02:10:15.398Z,86.49
2019-03-18T02:11:15.346Z,86.91
2019-03-18T02:12:15.363Z,86.91
2019-03-18T02:13:15.332Z,86.60
2019-03-18T02:14:15.317Z,86.08
2019-03-18T02:15:15.331Z,86.49
2019-03-18T02:16:15.292Z,86.39
2019-03-18T02:17:15.288Z,86.18
2019-03-18T02:18:15.267Z,86.60
2019-03-18T02:19:15.255Z,86.55
2019-03-18T02:20:15.269Z,86.08
2019-03-18T02:21:15.244Z,86.39
2019-03-18T02:22:15.231Z,86.18
2019-03-18T02:23:15.223Z,86.70
2019-03-18T02:24:15.215Z,86.49
2019-03-18T02:25:15.255Z,86.80
2019-03-18T02:26:15.200Z,86.91
2019-03-18T02:27:15.193Z,86.70
2019-03-18T02:28:15.162Z,86.60
2019-03-18T02:29:15.161Z,87.01
2019-03-18T02:30:15.161Z,87.01
2019-03-18T02:31:15.134Z,86.55
2019-03-18T02:32:15.122Z,86.80
2019-03-18T02:33:15.130Z,86.70
2019-03-18T02:34:15.106Z,86.49
2019-03-18T02:35:15.123Z,86.55
2019-03-18T02:36:15.091Z,86.60
2019-03-18T02:37:15.077Z,86.55
2019-03-18T02:38:15.066Z,86.66
2019-03-18T02:39:15.070Z,86.97
2019-03-18T02:40:15.051Z,86.80
2019-03-18T02:41:15.063Z,86.49
2019-03-18T02:42:15.007Z,86.91
2019-03-18T02:43:15.012Z,87.01
2019-03-18T02:44:14.994Z,86.55
2019-03-18T02:45:15.015Z,87.01
2019-03-18T02:46:14.982Z,87.74
2019-03-18T02:47:14.966Z,86.87
2019-03-18T02:48:14.963Z,86.45
2019-03-18T02:49:14.928Z,86.87
2019-03-18T02:50:14.947Z,86.87
2019-03-18T02:51:14.934Z,86.66
2019-03-18T02:52:14.904Z,86.55
2019-03-18T02:53:14.888Z,86.72
2019-03-18T02:54:14.877Z,86.76
2019-03-18T02:55:14.889Z,86.87
2019-03-18T02:56:14.863Z,86.76
2019-03-18T02:57:14.855Z,87.07
2019-03-18T02:58:14.839Z,87.49
2019-03-18T02:59:14.833Z,87.90
2019-03-18T03:00:14.853Z,88.01
2019-03-18T03:01:14.802Z,88.11
2019-03-18T03:02:14.795Z,88.32
2019-03-18T03:03:14.794Z,88.84
2019-03-18T03:04:14.779Z,88.42
2019-03-18T03:05:14.804Z,89.36
2019-03-18T03:06:14.754Z,89.87
2019-03-18T03:07:14.740Z,90.85
2019-03-18T03:08:14.726Z,91.16
2019-03-18T03:09:14.740Z,91.68
2019-03-18T03:10:14.821Z,91.99
2019-03-18T03:12:24.823Z,92.86
2019-03-18T03:13:25.852Z,93.38
2019-03-18T03:14:25.803Z,92.86
2019-03-18T03:15:25.810Z,93.38
2019-03-18T03:16:27.568Z,93.28
2019-03-18T03:17:25.774Z,93.28
2019-03-18T03:18:25.770Z,93.23
2019-03-18T03:19:25.779Z,93.80
2019-03-18T03:20:25.793Z,94.48
2019-03-18T03:21:25.748Z,94.42
2019-03-18T03:22:25.745Z,94.37
2019-03-18T03:23:25.741Z,94.42
2019-03-18T03:24:25.709Z,94.42
2019-03-18T03:25:25.699Z,94.42
2019-03-18T03:26:25.688Z,94.53
2019-03-18T03:27:25.659Z,94.32
2019-03-18T03:28:25.679Z,94.21
2019-03-18T03:29:25.640Z,94.84
2019-03-18T03:30:25.649Z,94.63
2019-03-18T03:31:25.629Z,94.84
2019-03-18T03:32:25.619Z,94.94
2019-03-18T03:33:25.636Z,94.53
2019-03-18T03:34:25.601Z,95.04
2019-03-18T03:35:25.623Z,94.63
2019-03-18T03:36:25.559Z,94.84
2019-03-18T03:37:25.552Z,95.56
2019-03-18T03:38:25.584Z,95.56
2019-03-18T03:39:25.531Z,95.36
2019-03-18T03:40:25.543Z,95.36
2019-03-18T03:41:25.506Z,96.19
2019-03-18T03:42:25.522Z,95.29
2019-03-18T03:43:25.491Z,95.36
2019-03-18T03:44:25.487Z,95.36
2019-03-18T03:45:25.482Z,95.56
2019-03-18T03:46:41.911Z,95.77
2019-03-18T03:47:25.490Z,96.08
2019-03-18T03:48:25.454Z,96.08
2019-03-18T03:49:25.447Z,95.98
2019-03-18T03:50:25.500Z,95.98
2019-03-18T03:51:25.427Z,95.98
2019-03-18T03:52:25.398Z,96.19
2019-03-18T03:53:25.390Z,96.29
2019-03-18T03:54:25.399Z,95.87
2019-03-18T03:55:25.375Z,96.08
2019-03-18T03:56:25.375Z,96.19
2019-03-18T03:57:25.345Z,96.19
2019-03-18T03:58:25.337Z,96.19
2019-03-18T03:59:25.319Z,95.15
2019-03-18T04:00:25.302Z,95.56
2019-03-18T04:01:29.111Z,95.46
2019-03-18T04:02:25.285Z,95.46
2019-03-18T04:03:37.706Z,95.67
2019-03-18T04:04:25.270Z,95.46
2019-03-18T04:05:25.257Z,95.87
2019-03-18T04:06:25.282Z,95.87
2019-03-18T04:07:25.241Z,96.19
2019-03-18T04:08:25.221Z,95.67
2019-03-18T04:09:25.222Z,95.56
2019-03-18T04:10:25.209Z,95.67
2019-03-18T04:11:25.204Z,95.46
2019-03-18T04:12:25.172Z,95.87
2019-03-18T04:13:25.179Z,95.67
2019-03-18T04:14:25.149Z,95.04
2019-03-18T04:15:25.151Z,95.31
2019-03-18T04:16:25.153Z,95.25
2019-03-18T04:17:25.138Z,95.67
2019-03-18T04:18:25.117Z,95.25
2019-03-18T04:19:25.109Z,95.15
2019-03-18T04:20:25.097Z,95.36
2019-03-18T04:21:25.138Z,95.25
2019-03-18T04:22:25.068Z,95.67
2019-03-18T04:23:25.074Z,95.67
2019-03-18T04:24:25.038Z,95.25
2019-03-18T04:25:25.035Z,95.36
2019-03-18T04:26:25.062Z,95.46
2019-03-18T04:27:25.216Z,95.62
2019-03-18T04:28:24.997Z,95.25
2019-03-18T04:29:25.038Z,94.63
2019-03-18T04:30:24.988Z,94.42
2019-03-18T04:31:24.985Z,95.15
2019-03-18T04:32:24.970Z,95.25
2019-03-18T04:33:24.951Z,95.25
2019-03-18T04:34:24.939Z,95.36
2019-03-18T04:35:24.921Z,95.36
2019-03-18T04:36:24.928Z,95.36
2019-03-18T04:37:24.903Z,95.25
2019-03-18T04:38:24.893Z,95.15
2019-03-18T04:39:24.884Z,95.36
2019-03-18T04:40:24.890Z,95.04
2019-03-18T04:41:24.899Z,95.56
2019-03-18T04:42:24.863Z,95.25
2019-03-18T04:43:24.855Z,95.87
2019-03-18T04:44:24.849Z,95.77
2019-03-18T04:45:24.818Z,95.46
2019-03-18T04:46:24.823Z,95.31
2019-03-18T04:47:24.829Z,95.46
2019-03-18T04:48:24.800Z,95.56
2019-03-18T04:49:24.792Z,95.25
2019-03-18T04:50:24.795Z,95.56
2019-03-18T04:51:24.762Z,95.04
2019-03-18T04:52:24.767Z,95.15
2019-03-18T04:53:24.749Z,95.15
2019-03-18T04:54:24.738Z,95.41
2019-03-18T04:55:24.715Z,95.41
2019-03-18T04:56:24.699Z,95.87
2019-03-18T04:57:24.719Z,95.25
2019-03-18T04:58:24.708Z,95.04
2019-03-18T04:59:24.685Z,95.56
2019-03-18T05:00:24.657Z,95.56
2019-03-18T05:01:24.670Z,95.77
2019-03-18T05:02:24.669Z,95.56
2019-03-18T05:03:24.629Z,94.94
2019-03-18T05:04:24.637Z,95.04
2019-03-18T05:05:24.604Z,94.73
2019-03-18T05:06:24.597Z,95.46
2019-03-18T05:07:24.616Z,95.25
2019-03-18T05:08:24.583Z,95.25
2019-03-18T05:09:24.563Z,94.94
2019-03-18T05:10:24.559Z,95.25
2019-03-18T05:11:24.538Z,95.56
2019-03-18T05:13:33.756Z,95.62
2019-03-18T05:14:34.714Z,95.56
2019-03-18T05:15:34.698Z,95.15
2019-03-18T05:16:34.684Z,95.36
2019-03-18T05:17:34.690Z,95.46
2019-03-18T05:18:36.686Z,95.36
2019-03-18T05:19:34.664Z,95.25
2019-03-18T05:20:34.647Z,95.25
2019-03-18T05:21:34.639Z,95.36
2019-03-18T05:22:34.741Z,95.15
2019-03-18T05:23:34.636Z,95.25
2019-03-18T05:24:34.645Z,95.04
2019-03-18T05:25:34.596Z,95.36
2019-03-18T05:26:34.591Z,94.84
2019-03-18T05:27:34.579Z,94.84
2019-03-18T05:28:34.560Z,95.56
2019-03-18T05:29:34.551Z,94.84
2019-03-18T05:30:34.536Z,95.04
2019-03-18T05:31:34.525Z,94.94
2019-03-18T05:32:34.550Z,95.15
2019-03-18T05:33:34.511Z,94.84
2019-03-18T05:34:34.490Z,95.20
2019-03-18T05:35:34.481Z,95.15
2019-03-18T05:36:34.470Z,95.04
2019-03-18T05:37:34.480Z,94.73
2019-03-18T05:38:34.453Z,95.46
2019-03-18T05:39:34.471Z,95.36
2019-03-18T05:40:34.430Z,95.25
2019-03-18T05:41:34.416Z,95.15
2019-03-18T05:42:34.420Z,94.84
2019-03-18T05:43:34.386Z,94.42
2019-03-18T05:44:34.388Z,94.94
2019-03-18T05:45:34.363Z,95.04
2019-03-18T05:46:34.360Z,94.42
2019-03-18T05:47:39.161Z,94.27
2019-03-18T05:48:34.333Z,94.17
2019-03-18T05:49:34.325Z,94.42
2019-03-18T05:50:34.336Z,94.11
2019-03-18T05:51:34.350Z,94.84
2019-03-18T05:52:34.326Z,94.63
2019-03-18T05:53:34.295Z,94.58
2019-03-18T05:54:34.295Z,94.84
2019-03-18T05:55:34.255Z,94.63
2019-03-18T05:56:34.257Z,94.89
2019-03-18T05:57:34.261Z,94.42
2019-03-18T05:58:34.232Z,94.89
2019-03-18T05:59:34.217Z,94.84
2019-03-18T06:00:34.214Z,94.73
2019-03-18T06:01:34.197Z,94.94
2019-03-18T06:02:34.203Z,94.94
2019-03-18T06:03:34.170Z,95.15
2019-03-18T06:04:34.170Z,94.94
2019-03-18T06:05:34.168Z,94.84
2019-03-18T06:06:34.138Z,95.04
2019-03-18T06:07:34.205Z,94.84
2019-03-18T06:08:34.126Z,94.63
2019-03-18T06:09:34.108Z,95.15
2019-03-18T06:10:34.105Z,94.84
2019-03-18T06:11:34.085Z,94.94
2019-03-18T06:12:34.096Z,94.84
2019-03-18T06:13:34.077Z,94.63
2019-03-18T06:14:34.058Z,94.73
2019-03-18T06:15:34.047Z,95.15
2019-03-18T06:16:34.033Z,94.89
2019-03-18T06:17:34.033Z,94.79
2019-03-18T06:18:34.011Z,94.27
2019-03-18T06:19:34.005Z,93.96
2019-03-18T06:20:33.986Z,94.17
2019-03-18T06:21:33.974Z,94.27
2019-03-18T06:22:33.980Z,94.27
2019-03-18T06:23:33.989Z,94.27
2019-03-18T06:24:33.970Z,94.17
2019-03-18T06:25:33.978Z,94.17
2019-03-18T06:26:33.929Z,94.37
2019-03-18T06:27:33.912Z,93.75
2019-03-18T06:28:33.921Z,93.71
2019-03-18T06:29:33.896Z,93.50
2019-03-18T06:30:33.904Z,93.54
2019-03-18T06:31:33.864Z,93.40
2019-03-18T06:32:33.866Z,93.81
2019-03-18T06:33:33.873Z,93.35
2019-03-18T06:34:33.840Z,93.60
2019-03-18T06:35:33.818Z,93.19
2019-03-18T06:36:33.815Z,93.60
2019-03-18T06:37:33.799Z,93.19
2019-03-18T06:38:33.844Z,93.40
2019-03-18T06:39:33.868Z,92.98
2019-03-18T06:40:33.775Z,93.29
2019-03-18T06:41:33.767Z,92.94
2019-03-18T06:42:33.782Z,93.35
2019-03-18T06:43:33.774Z,93.04
2019-03-18T06:44:33.804Z,93.04
2019-03-18T06:45:33.765Z,93.04
2019-03-18T06:46:33.705Z,93.25
2019-03-18T06:47:33.734Z,92.94
2019-03-18T06:48:33.710Z,93.04
2019-03-18T06:49:33.669Z,92.74
2019-03-18T06:50:33.821Z,93.15
2019-03-18T06:51:33.737Z,92.63
2019-03-18T06:52:33.829Z,92.94
2019-03-18T06:53:33.712Z,92.84
2019-03-18T06:54:33.929Z,93.04
2019-03-18T06:55:33.614Z,93.04
2019-03-18T06:56:33.605Z,92.80
2019-03-18T06:57:33.615Z,92.94
2019-03-18T06:58:33.604Z,92.84
2019-03-18T06:59:33.568Z,92.74
2019-03-18T07:00:33.557Z,92.28
2019-03-18T07:01:33.541Z,92.07
2019-03-18T07:02:33.527Z,91.76
2019-03-18T07:03:33.534Z,91.76
2019-03-18T07:04:33.506Z,92.49
2019-03-18T07:05:33.505Z,91.97
2019-03-18T07:06:33.494Z,92.18
2019-03-18T07:07:33.496Z,91.51
2019-03-18T07:08:33.470Z,91.61
2019-03-18T07:09:33.465Z,91.51
2019-03-18T07:10:33.518Z,91.47
2019-03-18T07:11:33.908Z,91.05
2019-03-18T07:12:33.460Z,90.64
2019-03-18T07:14:43.038Z,90.44
2019-03-18T07:15:43.606Z,90.37
2019-03-18T07:16:43.585Z,90.23
2019-03-18T07:17:43.594Z,89.81
2019-03-18T07:18:43.576Z,90.06
2019-03-18T07:19:43.550Z,89.71
2019-03-18T07:20:43.549Z,89.81
2019-03-18T07:21:43.562Z,89.61
2019-03-18T07:22:43.553Z,89.92
2019-03-18T07:23:43.516Z,89.29
2019-03-18T07:24:43.508Z,89.75
2019-03-18T07:25:43.512Z,90.02
2019-03-18T07:26:43.555Z,89.92
2019-03-18T07:27:43.501Z,89.09
2019-03-18T07:28:43.473Z,89.03
2019-03-18T07:29:43.485Z,89.50
2019-03-18T07:30:43.457Z,89.50
2019-03-18T07:31:43.476Z,89.44
2019-03-18T07:32:43.630Z,89.54
2019-03-18T07:33:43.406Z,89.71
2019-03-18T07:34:43.417Z,90.16
2019-03-18T07:35:43.394Z,89.75
2019-03-18T07:36:43.375Z,89.65
2019-03-18T07:37:43.402Z,89.86
2019-03-18T07:38:43.360Z,89.81
2019-03-18T07:39:43.349Z,89.50
2019-03-18T07:40:43.337Z,89.81
2019-03-18T07:41:43.325Z,89.61
2019-03-18T07:42:43.332Z,89.75
2019-03-18T07:43:44.397Z,89.40
2019-03-18T07:44:43.280Z,89.75
2019-03-18T07:45:43.332Z,88.78
2019-03-18T07:46:43.275Z,89.75
2019-03-18T07:47:43.497Z,90.02
2019-03-18T07:48:43.261Z,89.50
2019-03-18T07:49:43.287Z,90.23
2019-03-18T07:50:43.230Z,89.71
2019-03-18T07:51:43.204Z,89.96
2019-03-18T07:52:43.253Z,89.61
2019-03-18T07:53:43.195Z,89.81
2019-03-18T07:54:43.199Z,89.81
2019-03-18T07:55:43.201Z,89.46
2019-03-18T07:56:43.200Z,89.67
2019-03-18T07:57:43.184Z,89.71
2019-03-18T07:58:43.143Z,89.25
2019-03-18T07:59:43.160Z,90.08
2019-03-18T08:00:43.173Z,88.84
2019-03-18T08:01:43.150Z,89.04
2019-03-18T08:02:43.170Z,89.36
2019-03-18T08:03:43.103Z,89.40
2019-03-18T08:04:43.116Z,89.29
2019-03-18T08:05:43.099Z,89.71
2019-03-18T08:06:43.111Z,89.56
2019-03-18T08:07:43.065Z,89.46
2019-03-18T08:08:43.124Z,89.15
2019-03-18T08:09:43.111Z,89.15
2019-03-18T08:10:43.097Z,90.08
2019-03-18T08:11:43.008Z,89.11
2019-03-18T08:12:42.989Z,88.49
2019-03-18T08:13:43.047Z,88.70
2019-03-18T08:14:42.988Z,88.18
2019-03-18T08:15:43.003Z,88.34
2019-03-18T08:16:42.943Z,86.73
2019-03-18T08:17:42.940Z,87.25
2019-03-18T08:18:43.670Z,87.41
2019-03-18T08:19:42.908Z,87.21
2019-03-18T08:20:42.919Z,87.10
2019-03-18T08:21:42.916Z,87.10
2019-03-18T08:22:42.974Z,86.49
2019-03-18T08:23:42.898Z,86.38
2019-03-18T08:24:42.889Z,86.38
2019-03-18T08:25:42.871Z,86.69
2019-03-18T08:26:42.839Z,86.28
2019-03-18T08:27:42.858Z,86.28
2019-03-18T08:28:42.839Z,86.49
2019-03-18T08:29:42.796Z,86.44
2019-03-18T08:30:42.820Z,86.49
2019-03-18T08:31:42.790Z,85.86
2019-03-18T08:32:42.847Z,86.18
2019-03-18T08:33:42.830Z,86.28
2019-03-18T08:34:42.769Z,86.59
2019-03-18T08:35:42.767Z,86.03
2019-03-18T08:36:42.768Z,85.72
2019-03-18T08:37:42.753Z,85.31
2019-03-18T08:38:42.822Z,85.31
2019-03-18T08:39:42.698Z,85.68
2019-03-18T08:40:42.700Z,85.13
2019-03-18T08:41:42.693Z,84.20
2019-03-18T08:42:42.686Z,84.51
2019-03-18T08:43:42.767Z,84.57
2019-03-18T08:44:42.789Z,84.61
2019-03-18T08:45:42.663Z,84.51
2019-03-18T08:46:42.788Z,83.58
2019-03-18T08:47:42.619Z,84.30
2019-03-18T08:48:55.142Z,83.58
2019-03-18T08:49:42.583Z,83.78
2019-03-18T08:50:42.574Z,82.55
2019-03-18T08:51:42.562Z,83.48
2019-03-18T08:52:42.559Z,83.13
2019-03-18T08:53:42.579Z,82.65
2019-03-18T08:54:42.535Z,83.13
2019-03-18T08:55:42.520Z,83.44
2019-03-18T08:56:42.511Z,82.47
2019-03-18T08:57:42.505Z,83.54
2019-03-18T08:58:42.510Z,83.68
2019-03-18T08:59:42.469Z,83.75
2019-03-18T09:00:42.460Z,82.40
2019-03-18T09:01:42.460Z,83.13
2019-03-18T09:02:42.443Z,82.86
2019-03-18T09:03:42.451Z,83.48
2019-03-18T09:04:42.415Z,82.55
2019-03-18T09:05:42.417Z,83.75
2019-03-18T09:06:42.426Z,83.58
2019-03-18T09:07:42.403Z,82.51
2019-03-18T09:08:42.397Z,82.14
2019-03-18T09:09:42.388Z,82.14
2019-03-18T09:10:42.379Z,81.68
2019-03-18T09:11:42.411Z,81.58
2019-03-18T09:12:42.771Z,81.68
2019-03-18T09:13:42.345Z,81.89
2019-03-18T09:15:51.559Z,81.89
2019-03-18T09:16:52.523Z,81.48
2019-03-18T09:17:52.513Z,81.58
2019-03-18T09:18:52.526Z,81.85
2019-03-18T09:19:52.502Z,80.82
2019-03-18T09:20:52.487Z,81.03
2019-03-18T09:21:52.489Z,80.41
2019-03-18T09:22:52.521Z,80.82
2019-03-18T09:23:52.466Z,80.93
2019-03-18T09:24:52.441Z,79.44
2019-03-18T09:25:52.438Z,79.03
2019-03-18T09:27:01.872Z,78.72
2019-03-18T09:27:52.401Z,79.72
2019-03-18T09:28:52.424Z,79.65
2019-03-18T09:29:52.384Z,78.48
2019-03-18T09:30:52.382Z,78.55
2019-03-18T09:31:52.359Z,78.03
2019-03-18T09:32:52.359Z,77.83
2019-03-18T09:33:52.377Z,78.21
2019-03-18T09:34:54.663Z,78.07
2019-03-18T09:35:53.332Z,78.58
2019-03-18T09:36:52.350Z,79.48
2019-03-18T09:37:52.288Z,80.16
2019-03-18T09:38:52.306Z,80.16
2019-03-18T09:39:52.281Z,79.17
2019-03-18T09:40:52.260Z,79.86
2019-03-18T09:41:52.254Z,79.24
2019-03-18T09:42:52.268Z,78.97
2019-03-18T09:43:52.244Z,78.41
2019-03-18T09:44:52.225Z,78.11
2019-03-18T09:45:54.490Z,77.69
2019-03-18T09:46:52.199Z,78.11
2019-03-18T09:47:52.197Z,78.21
2019-03-18T09:48:52.199Z,77.28
2019-03-18T09:49:52.173Z,76.83
2019-03-18T09:50:52.168Z,76.32
2019-03-18T09:51:52.161Z,76.25
2019-03-18T09:52:52.137Z,76.56
2019-03-18T09:53:52.154Z,75.73
2019-03-18T09:54:52.107Z,76.56
2019-03-18T09:55:52.097Z,75.87
2019-03-18T09:56:52.096Z,76.35
2019-03-18T09:57:52.082Z,75.29
2019-03-18T09:58:52.089Z,74.80
2019-03-18T09:59:52.066Z,74.57
2019-03-18T10:00:52.150Z,75.70
2019-03-18T10:01:52.052Z,75.39
2019-03-18T10:02:52.046Z,75.97
2019-03-18T10:03:52.046Z,74.63
2019-03-18T10:04:52.025Z,74.05
2019-03-18T10:05:52.058Z,73.91
2019-03-18T10:06:51.984Z,73.91
2019-03-18T10:07:52.000Z,73.57
2019-03-18T10:08:51.986Z,71.62
2019-03-18T10:09:51.988Z,70.90
2019-03-18T10:10:51.927Z,70.28
2019-03-18T10:11:51.937Z,71.82
2019-03-18T10:12:51.914Z,72.06
2019-03-18T10:13:51.925Z,71.00
2019-03-18T10:14:51.923Z,70.62
2019-03-18T10:15:52.231Z,69.79
2019-03-18T10:16:51.888Z,69.70
2019-03-18T10:17:51.866Z,69.87
2019-03-18T10:18:51.850Z,69.70
2019-03-18T10:19:53.537Z,70.10
2019-03-18T10:20:51.820Z,71.37
2019-03-18T10:21:51.822Z,71.65
2019-03-18T10:22:51.808Z,71.03
2019-03-18T10:23:51.813Z,71.65
2019-03-18T10:24:51.836Z,71.65
2019-03-18T10:25:52.181Z,71.41
2019-03-18T10:26:51.872Z,71.31
2019-03-18T10:27:51.903Z,69.94
2019-03-18T10:28:51.832Z,70.11
2019-03-18T10:29:52.322Z,69.87
2019-03-18T10:30:52.078Z,68.95
2019-03-18T10:31:51.712Z,68.13
2019-03-18T10:32:51.717Z,67.79
2019-03-18T10:33:51.723Z,66.89
2019-03-18T10:34:51.699Z,67.30
2019-03-18T10:35:54.036Z,67.03
2019-03-18T10:36:52.589Z,66.31
2019-03-18T10:37:52.060Z,67.03
2019-03-18T10:38:52.886Z,66.41
2019-03-18T10:39:51.647Z,66.72
2019-03-18T10:40:51.619Z,66.89
2019-03-18T10:41:51.601Z,66.58
2019-03-18T10:42:51.585Z,68.02
2019-03-18T10:43:51.580Z,66.58
2019-03-18T10:44:51.594Z,66.89
2019-03-18T10:45:51.563Z,66.38
2019-03-18T10:46:51.548Z,65.66
2019-03-18T10:47:51.548Z,66.45
2019-03-18T10:48:51.524Z,66.35
2019-03-18T10:49:51.525Z,65.42
2019-03-18T10:50:51.501Z,65.83
2019-03-18T10:51:51.497Z,65.77
2019-03-18T10:52:51.488Z,65.22
2019-03-18T10:53:52.265Z,62.73
2019-03-18T10:54:51.486Z,63.34
2019-03-18T10:55:51.450Z,63.91
2019-03-18T10:56:51.466Z,64.81
2019-03-18T10:57:51.427Z,65.09
2019-03-18T10:58:51.412Z,63.13
2019-03-18T10:59:51.427Z,63.57
2019-03-18T11:00:51.400Z,63.89
2019-03-18T11:01:51.386Z,65.14
2019-03-18T11:02:51.389Z,64.60
2019-03-18T11:03:51.369Z,65.12
2019-03-18T11:04:51.377Z,63.89
2019-03-18T11:05:51.337Z,63.44
2019-03-18T11:06:51.329Z,63.79
2019-03-18T11:07:51.987Z,63.65
2019-03-18T11:08:51.329Z,63.31
2019-03-18T11:09:52.322Z,63.79
2019-03-18T11:10:51.291Z,63.79
2019-03-18T11:11:51.314Z,63.05
2019-03-18T11:12:51.265Z,62.30
2019-03-18T11:13:51.280Z,61.23
2019-03-18T11:14:51.300Z,61.13
2019-03-18T11:17:22.397Z,59.52
2019-03-18T11:18:24.308Z,59.38
2019-03-18T11:19:23.352Z,60.00
2019-03-18T11:20:23.740Z,59.11
2019-03-18T11:21:23.331Z,58.46
2019-03-18T11:22:23.328Z,57.92
2019-03-18T11:23:23.414Z,55.38
2019-03-18T11:24:23.326Z,55.59
2019-03-18T11:25:24.700Z,56.95
2019-03-18T11:26:23.388Z,58.00
2019-03-18T11:27:23.268Z,57.59
2019-03-18T11:28:23.271Z,56.77
2019-03-18T11:29:23.265Z,56.49
2019-03-18T11:30:23.265Z,55.57
2019-03-18T11:31:23.252Z,55.49
2019-03-18T11:32:23.228Z,56.10
2019-03-18T11:33:24.692Z,56.21
2019-03-18T11:34:23.191Z,56.41
2019-03-18T11:35:23.723Z,57.44
2019-03-18T11:36:23.168Z,58.26
2019-03-18T11:37:23.161Z,58.78
2019-03-18T11:38:23.144Z,58.57
2019-03-18T11:39:23.128Z,59.16
2019-03-18T11:40:23.153Z,58.67
2019-03-18T11:41:23.103Z,59.59
2019-03-18T11:42:23.110Z,59.47
2019-03-18T11:43:23.108Z,58.08
2019-03-18T11:44:23.083Z,56.44
2019-03-18T11:45:23.112Z,57.06
2019-03-18T11:46:23.080Z,56.95
2019-03-18T11:47:23.121Z,58.18
2019-03-18T11:48:23.033Z,59.55
2019-03-18T11:49:23.037Z,60.58
2019-03-18T11:50:23.035Z,61.02
2019-03-18T11:51:23.020Z,61.53
2019-03-18T11:52:23.140Z,64.11
2019-03-18T11:53:23.064Z,66.71
2019-03-18T11:54:23.040Z,71.69
2019-03-18T11:55:23.245Z,74.43
2019-03-18T11:56:22.996Z,76.70
2019-03-18T11:57:22.957Z,77.45
2019-03-18T11:58:22.950Z,78.21
2019-03-18T11:59:22.938Z,80.07
2019-03-18T12:00:22.929Z,80.48
2019-03-18T12:01:22.907Z,80.73
2019-03-18T12:02:27.661Z,80.73
2019-03-18T12:03:22.920Z,81.76
2019-03-18T12:04:23.113Z,82.59
2019-03-18T12:05:22.962Z,82.17
2019-03-18T12:06:22.879Z,82.00
2019-03-18T12:07:22.882Z,80.76
2019-03-18T12:08:22.835Z,81.76
2019-03-18T12:09:24.277Z,80.79
2019-03-18T12:10:25.337Z,79.86
2019-03-18T12:11:22.846Z,79.11
2019-03-18T12:12:23.032Z,78.45
2019-03-18T12:13:22.795Z,77.31
2019-03-18T12:14:22.860Z,77.01
2019-03-18T12:15:25.764Z,77.31
2019-03-18T12:16:22.767Z,77.42
2019-03-18T12:17:23.685Z,76.70
2019-03-18T12:18:22.904Z,76.70
2019-03-18T12:19:23.256Z,76.76
2019-03-18T12:20:25.487Z,76.32
2019-03-18T12:21:22.768Z,76.11
2019-03-18T12:22:22.680Z,76.04
2019-03-18T12:23:22.687Z,76.04
2019-03-18T12:24:22.654Z,77.08
2019-03-18T12:25:22.634Z,77.35
2019-03-18T12:26:22.637Z,79.04
2019-03-18T12:27:22.625Z,80.76
2019-03-18T12:28:22.605Z,82.28
2019-03-18T12:29:22.584Z,81.70
2019-03-18T12:30:22.580Z,82.21
2019-03-18T12:31:22.587Z,81.86
2019-03-18T12:32:22.552Z,80.93
2019-03-18T12:33:22.546Z,79.90
2019-03-18T12:34:22.530Z,78.97
2019-03-18T12:35:22.515Z,77.80
2019-03-18T12:36:22.537Z,76.90
2019-03-18T12:37:22.513Z,77.28
2019-03-18T12:38:22.496Z,75.87
2019-03-18T12:39:24.736Z,75.53
2019-03-18T12:40:22.462Z,75.84
2019-03-18T12:41:22.480Z,76.15
2019-03-18T12:42:22.447Z,76.80
2019-03-18T12:43:22.457Z,74.67
2019-03-18T12:44:22.420Z,76.21
2019-03-18T12:45:22.451Z,75.39
2019-03-18T12:46:22.428Z,75.46
2019-03-18T12:47:22.405Z,74.67
2019-03-18T12:48:22.390Z,75.05
2019-03-18T12:49:22.377Z,74.22
2019-03-18T12:50:38.641Z,74.84
2019-03-18T12:51:22.359Z,75.53
2019-03-18T12:52:22.349Z,74.02
2019-03-18T12:53:22.331Z,74.19
2019-03-18T12:54:22.363Z,74.19
2019-03-18T12:55:22.309Z,73.68
2019-03-18T12:56:22.312Z,73.23
2019-03-18T12:57:22.299Z,73.98
2019-03-18T12:58:22.301Z,73.26
2019-03-18T12:59:22.295Z,73.74